Time;durP1;ratioP1;P1;durP2;ratioP2;P2;SDS_P1;SDS_P2;PMS_P1;PMS_P2;Temp;Humidity;BMP_temperature;BMP_pressure;BME280_temperature;BME280_humidity;BME280_pressure;Samples;Min_cycle;Max_cycle;Signal;HPM_P1;HPM_P2
2024/01/11 00:01:47;;;;;;;9.10;7.47;;;;;;;18.74;40.95;102186.81;5045110;28;20045;-61
2024/01/11 00:04:14;;;;;;;8.77;7.00;;;;;;;18.73;40.75;102198.50;5045549;28;20408;-61
2024/01/11 00:06:45;;;;;;;8.80;7.13;;;;;;;18.74;40.85;102194.88;5038239;28;20046;-61
2024/01/11 00:09:15;;;;;;;;;;;;;;;18.71;40.87;102188.81;5045527;28;20510;-61
2024/01/11 00:11:42;;;;;;;8.65;7.63;;;;;;;18.72;40.75;102188.75;5045448;28;19928;-61
2024/01/11 00:14:10;;;;;;;9.50;7.18;;;;;;;18.72;40.75;102187.88;5047821;28;20045;-61
2024/01/11 00:16:37;;;;;;;8.00;6.75;;;;;;;18.71;40.83;102180.78;5042080;28;20044;-61
2024/01/11 00:19:04;;;;;;;8.43;6.80;;;;;;;18.71;40.73;102180.78;5042824;28;20045;-61
2024/01/11 00:21:32;;;;;;;8.52;7.18;;;;;;;18.70;40.63;102184.41;5033405;28;20045;-61
2024/01/11 00:23:59;;;;;;;8.68;7.18;;;;;;;18.71;40.59;102180.78;5045538;28;20045;-61
2024/01/11 00:26:27;;;;;;;9.00;7.30;;;;;;;18.69;40.68;102175.47;5040403;28;20046;-60
2024/01/11 00:28:54;;;;;;;9.23;7.38;;;;;;;18.70;40.62;102179.91;5045293;28;20411;-60
2024/01/11 00:31:22;;;;;;;8.18;7.28;;;;;;;18.69;40.55;102180.84;5036871;28;20053;-60
2024/01/11 00:33:49;;;;;;;11.27;7.75;;;;;;;18.70;40.52;102171.88;5043591;28;20052;-61
2024/01/11 00:36:19;;;;;;;9.93;7.35;;;;;;;18.68;40.44;102179.13;5042495;28;20042;-60
2024/01/11 00:38:47;;;;;;;10.70;8.20;;;;;;;18.69;40.46;102183.53;5047998;28;20045;-60
2024/01/11 00:41:14;;;;;;;7.75;6.63;;;;;;;18.68;40.33;102173.75;5048661;28;20044;-60
2024/01/11 00:43:42;;;;;;;9.38;7.75;;;;;;;18.69;40.26;102180.00;5047233;28;20053;-60
2024/01/11 00:46:09;;;;;;;9.45;7.53;;;;;;;18.67;40.23;102177.38;5042078;28;20050;-60
2024/01/11 00:48:36;;;;;;;9.13;7.38;;;;;;;18.67;40.21;102180.06;5048411;28;20045;-60
2024/01/11 00:51:05;;;;;;;9.18;7.80;;;;;;;18.67;40.37;102181.88;5048333;28;20056;-60
2024/01/11 00:53:33;;;;;;;8.07;7.15;;;;;;;18.66;39.99;102180.16;5047470;28;20056;-60
2024/01/11 00:56:00;;;;;;;7.78;6.40;;;;;;;18.65;40.19;102182.00;5043941;28;20057;-60
2024/01/11 00:58:28;;;;;;;9.77;7.30;;;;;;;18.64;40.18;102188.31;5047359;28;20044;-60
2024/01/11 01:00:55;;;;;;;10.35;7.90;;;;;;;18.64;40.10;102179.41;5041512;28;20503;-60
2024/01/11 01:03:23;;;;;;;9.13;7.47;;;;;;;18.64;40.06;102185.63;5047209;28;20048;-60
2024/01/11 01:05:50;;;;;;;9.30;7.55;;;;;;;18.63;40.17;102180.34;5043130;28;20045;-60
2024/01/11 01:08:18;;;;;;;8.25;7.07;;;;;;;18.63;40.18;102183.88;5040595;28;20053;-60
2024/01/11 01:10:45;;;;;;;9.70;6.78;;;;;;;18.62;40.14;102179.50;5029964;28;20408;-60
2024/01/11 01:13:12;;;;;;;8.93;6.72;;;;;;;18.63;40.09;102180.34;5016204;28;20492;-60
2024/01/11 01:15:40;;;;;;;8.93;8.00;;;;;;;18.62;39.91;102182.16;5035720;28;20053;-60
2024/01/11 01:18:07;;;;;;;7.97;6.90;;;;;;;18.62;40.09;102168.75;5043242;28;20492;-60
2024/01/11 01:20:35;;;;;;;8.93;7.35;;;;;;;18.60;40.09;102164.47;5032902;28;20041;-60
2024/01/11 01:23:03;;;;;;;7.85;7.05;;;;;;;18.61;40.18;102166.19;5044206;28;20103;-60
2024/01/11 01:25:30;;;;;;;8.75;7.22;;;;;;;18.60;40.17;102175.19;5042441;28;20046;-60
2024/01/11 01:27:59;;;;;;;9.30;7.03;;;;;;;18.59;40.09;102168.09;5031105;28;20490;-60
2024/01/11 01:30:27;;;;;;;7.10;6.40;;;;;;;18.61;40.28;102182.28;5048377;28;20061;-60
2024/01/11 01:32:54;;;;;;;9.40;7.47;;;;;;;18.59;40.33;102179.66;5046722;28;20045;-60
2024/01/11 01:35:22;;;;;;;8.82;7.03;;;;;;;18.59;40.38;102170.75;5043725;28;20042;-60
2024/01/11 01:37:49;;;;;;;8.65;7.43;;;;;;;18.58;40.25;102169.91;5042755;28;20500;-60
2024/01/11 01:40:17;;;;;;;8.57;7.15;;;;;;;18.58;40.33;102169.91;5044800;28;20056;-60
2024/01/11 01:42:45;;;;;;;8.80;7.68;;;;;;;18.58;40.37;102175.28;5035067;28;20045;-60
2024/01/11 01:45:12;;;;;;;8.27;7.03;;;;;;;18.57;40.33;102173.56;5047153;28;20049;-60
2024/01/11 01:47:41;;;;;;;8.35;7.10;;;;;;;18.59;40.43;102176.13;5038063;28;20049;-60
2024/01/11 01:50:11;;;;;;;8.88;6.63;;;;;;;18.58;40.52;102177.94;5050587;28;20045;-60
2024/01/11 01:52:42;;;;;;;9.77;7.68;;;;;;;18.57;40.42;102170.88;5038480;28;20042;-60
2024/01/11 01:55:10;;;;;;;8.38;7.13;;;;;;;18.57;40.42;102170.88;5050651;28;20045;-60
2024/01/11 01:57:40;;;;;;;9.05;7.70;;;;;;;18.57;40.38;102167.34;5044002;28;20044;-60
2024/01/11 02:00:11;;;;;;;10.13;6.18;;;;;;;18.57;40.51;102173.56;5039154;28;20060;-60
2024/01/11 02:02:49;;;;;;;7.90;6.95;;;;;;;18.56;40.40;102174.53;5042982;28;20450;-60
2024/01/11 02:05:18;;;;;;;10.00;7.20;;;;;;;18.54;40.48;102171.91;5025288;28;20056;-60
2024/01/11 02:07:46;;;;;;;8.68;7.10;;;;;;;18.55;40.46;102172.78;5029385;28;20049;-60
2024/01/11 02:10:13;;;;;;;8.50;6.47;;;;;;;18.54;40.45;102168.38;5031548;28;20056;-60
2024/01/11 02:12:41;;;;;;;8.32;6.93;;;;;;;18.55;40.47;102172.78;5042084;28;20045;-60
2024/01/11 02:15:08;;;;;;;7.82;6.75;;;;;;;18.54;40.57;102174.59;5047390;28;20045;-60
2024/01/11 02:17:36;;;;;;;9.27;6.95;;;;;;;18.53;40.40;102167.50;5029470;28;20049;-60
2024/01/11 02:20:04;;;;;;;8.90;7.15;;;;;;;18.54;40.34;102173.75;5040074;28;20045;-60
2024/01/11 02:22:35;;;;;;;7.93;7.00;;;;;;;18.54;40.46;102177.28;5017683;28;20512;-60
2024/01/11 02:25:03;;;;;;;9.45;7.60;;;;;;;18.54;40.58;102176.41;5048030;28;20045;-60
2024/01/11 02:27:30;;;;;;;8.25;6.78;;;;;;;18.53;40.47;102175.56;5047072;28;20053;-60
2024/01/11 02:29:58;;;;;;;8.00;6.47;;;;;;;18.53;40.51;102169.34;5046301;28;20053;-60
2024/01/11 02:32:25;;;;;;;8.27;7.03;;;;;;;18.52;40.51;102165.78;5043093;28;20050;-60
2024/01/11 02:34:53;;;;;;;9.82;6.72;;;;;;;18.52;40.52;102168.47;5047103;28;20044;-60
2024/01/11 02:37:20;;;;;;;7.63;6.65;;;;;;;18.53;40.58;102169.34;5047111;28;20052;-60
2024/01/11 02:39:47;;;;;;;7.53;6.70;;;;;;;18.53;40.46;102158.63;5046129;28;20052;-60
2024/01/11 02:42:15;;;;;;;7.70;6.07;;;;;;;18.53;40.53;102161.28;5042554;28;20053;-60
2024/01/11 02:44:42;;;;;;;8.95;6.53;;;;;;;18.52;40.62;102143.47;5046829;28;20045;-60
2024/01/11 02:47:10;;;;;;;7.80;6.38;;;;;;;18.53;40.56;102147.88;5047472;28;20053;-60
2024/01/11 02:49:37;;;;;;;7.68;6.30;;;;;;;18.52;40.64;102143.47;5048266;28;20056;-59
2024/01/11 02:52:05;;;;;;;7.68;6.03;;;;;;;18.51;40.53;102137.25;5018739;28;20411;-60
2024/01/11 02:54:32;;;;;;;7.82;6.57;;;;;;;18.51;40.58;102134.56;5047861;28;20071;-60
2024/01/11 02:56:59;;;;;;;7.60;6.30;;;;;;;18.51;40.61;102141.72;5042887;28;20046;-60
2024/01/11 02:59:27;;;;;;;8.18;6.10;;;;;;;18.50;40.62;102137.34;5024052;28;20053;-59
2024/01/11 03:01:54;;;;;;;7.28;6.22;;;;;;;18.50;40.67;102135.50;5021281;28;20404;-59
2024/01/11 03:04:21;;;;;;;9.30;6.65;;;;;;;18.49;40.67;102141.84;5035880;28;20045;-60
2024/01/11 03:06:49;;;;;;;7.43;6.43;;;;;;;18.50;40.87;102132.84;5036486;28;20060;-60
2024/01/11 03:09:16;;;;;;;7.82;6.68;;;;;;;18.49;40.66;102127.56;5046057;28;20048;-60
2024/01/11 03:11:43;;;;;;;9.93;6.57;;;;;;;18.48;40.77;102124.03;5042818;28;20057;-60
2024/01/11 03:14:11;;;;;;;7.85;6.43;;;;;;;18.48;40.75;102121.34;5046307;28;20049;-60
2024/01/11 03:16:39;;;;;;;8.15;6.50;;;;;;;18.47;40.85;102121.44;5041545;28;20483;-60
2024/01/11 03:19:07;;;;;;;8.55;7.18;;;;;;;18.46;40.75;102114.34;5044526;28;20063;-60
2024/01/11 03:21:34;;;;;;;8.15;6.95;;;;;;;18.45;40.89;102116.16;5015472;28;20061;-60
2024/01/11 03:24:01;;;;;;;7.75;6.25;;;;;;;18.46;40.79;102117.03;5026705;28;20402;-60
2024/01/11 03:26:29;;;;;;;8.85;7.18;;;;;;;18.45;40.77;102116.16;5044603;28;20424;-60
2024/01/11 03:28:56;;;;;;;6.20;5.28;;;;;;;18.46;40.82;102111.66;5037268;28;20057;-60
2024/01/11 03:31:23;;;;;;;6.97;5.50;;;;;;;18.46;40.82;102111.66;5040181;28;20049;-60
2024/01/11 03:33:51;;;;;;;6.75;5.55;;;;;;;18.45;40.82;102107.28;5028390;28;20067;-60
2024/01/11 03:36:18;;;;;;;8.40;6.53;;;;;;;18.44;40.86;102109.09;5046805;28;20048;-60
2024/01/11 03:38:45;;;;;;;6.72;5.53;;;;;;;18.45;40.78;102108.13;5020766;28;20046;-60
2024/01/11 03:41:16;;;;;;;6.95;6.25;;;;;;;18.44;40.78;102103.72;5041525;28;20061;-60
2024/01/11 03:43:44;;;;;;;8.50;6.68;;;;;;;18.44;41.04;102102.88;5037615;28;20072;-60
2024/01/11 03:46:11;;;;;;;7.15;6.07;;;;;;;18.43;40.99;102106.50;5046750;28;20045;-60
2024/01/11 03:48:38;;;;;;;6.93;5.75;;;;;;;18.42;40.86;102105.63;5045589;28;20071;-60
2024/01/11 03:51:06;;;;;;;7.25;5.97;;;;;;;18.41;40.90;102106.59;5042918;28;20052;-60
2024/01/11 03:53:36;;;;;;;7.15;5.75;;;;;;;18.42;40.92;102115.50;5040795;28;20393;-60
2024/01/11 03:56:05;;;;;;;7.22;5.63;;;;;;;18.42;41.03;102104.78;5021539;28;20396;-60
2024/01/11 03:58:32;;;;;;;8.10;6.20;;;;;;;18.40;40.95;102102.19;5043131;28;20071;-59
2024/01/11 04:01:00;;;;;;;7.28;6.00;;;;;;;18.41;40.85;102103.91;5048095;28;20053;-60
2024/01/11 04:03:27;;;;;;;7.65;5.75;;;;;;;18.41;40.89;102106.59;5046858;28;20053;-60
2024/01/11 04:05:55;;;;;;;8.10;6.78;;;;;;;18.40;40.90;102104.03;5048741;28;20037;-60
2024/01/11 04:08:22;;;;;;;8.00;6.53;;;;;;;18.40;41.07;102101.34;5038857;28;20049;-61
2024/01/11 04:10:50;;;;;;;7.65;6.30;;;;;;;18.41;41.11;102106.59;5049292;28;20050;-61
2024/01/11 04:13:17;;;;;;;6.35;5.75;;;;;;;18.40;41.03;102101.34;5053887;28;20051;-61
2024/01/11 04:15:45;;;;;;;6.50;5.13;;;;;;;18.39;41.06;102115.69;5029672;28;20042;-59
2024/01/11 04:18:12;;;;;;;7.70;5.88;;;;;;;18.39;41.09;102104.94;5038640;28;20053;-59
2024/01/11 04:20:40;;;;;;;7.43;6.18;;;;;;;18.38;41.04;102097.88;5051474;28;20053;-60
2024/01/11 04:23:07;;;;;;;8.85;6.00;;;;;;;18.38;41.15;102096.06;5043437;28;20375;-60
2024/01/11 04:25:35;;;;;;;6.63;5.78;;;;;;;18.38;41.05;102087.16;5043655;28;20045;-60
2024/01/11 04:28:02;;;;;;;6.13;5.45;;;;;;;18.37;40.99;102090.78;5049105;28;20041;-60
2024/01/11 04:30:31;;;;;;;8.02;5.70;;;;;;;18.36;41.17;102083.72;5031712;28;20512;-61
2024/01/11 04:32:58;;;;;;;7.13;5.70;;;;;;;18.36;41.20;102089.09;5032264;28;20052;-61
2024/01/11 04:35:26;;;;;;;7.25;5.63;;;;;;;18.36;41.07;102089.09;5039894;28;20072;-61
2024/01/11 04:37:55;;;;;;;6.80;5.38;;;;;;;18.35;41.08;102088.22;5035465;28;20049;-61
2024/01/11 04:40:24;;;;;;;7.28;5.65;;;;;;;18.34;41.22;102082.94;5049213;28;20060;-61
2024/01/11 04:42:51;;;;;;;7.00;5.30;;;;;;;18.34;41.14;102074.91;5043768;28;20041;-61
2024/01/11 04:45:18;;;;;;;6.47;5.55;;;;;;;18.34;41.29;102075.75;5048000;28;20048;-61
2024/01/11 04:47:45;;;;;;;7.45;5.28;;;;;;;18.33;41.34;102074.03;5020918;28;20052;-61
2024/01/11 04:50:13;;;;;;;8.63;5.80;;;;;;;18.33;41.30;102073.19;5052314;28;20056;-62
2024/01/11 04:52:40;;;;;;;6.70;5.40;;;;;;;18.33;41.21;102079.41;5053674;28;20056;-60
2024/01/11 04:55:08;;;;;;;7.20;5.68;;;;;;;18.34;41.39;102080.25;5028202;28;20057;-60
2024/01/11 04:57:35;;;;;;;7.38;5.30;;;;;;;18.33;41.23;102074.03;5047724;28;20053;-60
2024/01/11 05:00:03;;;;;;;7.72;5.90;;;;;;;18.33;41.20;102075.84;5049754;28;20048;-60
2024/01/11 05:02:30;;;;;;;7.03;5.50;;;;;;;18.33;41.20;102079.41;5049512;28;20415;-61
2024/01/11 05:04:58;;;;;;;7.07;5.40;;;;;;;18.32;41.28;102080.38;5049242;28;20052;-61
2024/01/11 05:07:27;;;;;;;7.45;5.43;;;;;;;18.32;41.28;102075.00;5047513;28;20438;-61
2024/01/11 05:09:54;;;;;;;6.63;5.63;;;;;;;18.31;41.13;102075.97;5048028;28;20057;-62
2024/01/11 05:12:22;;;;;;;6.55;5.68;;;;;;;18.31;41.23;102075.06;5049615;28;20041;-61
2024/01/11 05:14:49;;;;;;;6.13;5.22;;;;;;;18.30;41.26;102084.94;5049634;28;20060;-61
2024/01/11 05:17:16;;;;;;;7.65;5.43;;;;;;;18.30;41.17;102084.94;5046258;28;20406;-61
2024/01/11 05:19:44;;;;;;;6.10;5.30;;;;;;;18.30;41.34;102079.56;5044944;28;20109;-61
2024/01/11 05:22:11;;;;;;;6.97;5.68;;;;;;;18.30;41.23;102076.91;5043263;28;20048;-61
2024/01/11 05:24:38;;;;;;;8.48;5.60;;;;;;;18.29;41.12;102084.09;5033502;28;20045;-59
2024/01/11 05:27:06;;;;;;;6.18;4.68;;;;;;;18.27;41.22;102072.59;5022206;28;20046;-61
2024/01/11 05:29:33;;;;;;;7.20;6.03;;;;;;;18.27;41.17;102077.97;5047057;28;20053;-61
2024/01/11 05:32:01;;;;;;;6.43;5.60;;;;;;;18.27;41.07;102079.75;5049881;28;20041;-62
2024/01/11 05:34:28;;;;;;;6.28;5.65;;;;;;;18.27;41.09;102079.75;5048089;28;20060;-61
2024/01/11 05:36:56;;;;;;;6.97;5.60;;;;;;;18.26;41.14;102076.22;5046708;28;20059;-61
2024/01/11 05:39:26;;;;;;;6.68;5.55;;;;;;;18.26;41.28;102080.72;5041790;28;20411;-61
2024/01/11 05:41:53;;;;;;;6.47;4.93;;;;;;;18.26;41.28;102078.91;5033108;28;20075;-60
2024/01/11 05:44:20;;;;;;;5.75;5.15;;;;;;;18.27;41.28;102085.13;5049291;28;20052;-60
2024/01/11 05:46:48;;;;;;;7.20;5.35;;;;;;;18.26;41.17;102086.94;5045851;28;20037;-62
2024/01/11 05:49:15;;;;;;;6.57;5.10;;;;;;;18.26;41.36;102088.75;5050205;28;20053;-60
2024/01/11 05:51:43;;;;;;;7.47;5.60;;;;;;;18.26;41.21;102083.41;5041961;28;20053;-60
2024/01/11 05:54:10;;;;;;;6.38;4.82;;;;;;;18.25;41.27;102093.28;5021737;28;20050;-60
2024/01/11 05:56:37;;;;;;;7.55;5.60;;;;;;;18.25;41.43;102095.09;5047037;28;20041;-60
2024/01/11 05:59:05;;;;;;;6.00;5.05;;;;;;;18.25;41.35;102095.94;5047187;28;20059;-60
2024/01/11 06:01:33;;;;;;;6.45;5.03;;;;;;;18.25;41.21;102089.72;5048674;28;20578;-60
2024/01/11 06:04:00;;;;;;;5.88;4.57;;;;;;;18.25;41.37;102095.94;5048689;28;20056;-61
2024/01/11 06:06:27;;;;;;;5.93;5.13;;;;;;;18.25;41.32;102098.63;5045339;28;20415;-61
2024/01/11 06:08:55;;;;;;;7.03;5.13;;;;;;;18.25;41.41;102101.31;5024132;28;20156;-61
2024/01/11 06:11:24;;;;;;;7.10;5.78;;;;;;;18.24;41.47;102085.34;5047313;28;20045;-61
2024/01/11 06:13:51;;;;;;;5.18;4.50;;;;;;;18.24;41.51;102088.88;5047179;28;20041;-60
2024/01/11 06:16:19;;;;;;;6.20;5.30;;;;;;;18.24;41.47;102096.91;5043405;28;20068;-61
2024/01/11 06:18:46;;;;;;;6.68;5.53;;;;;;;18.24;41.43;102102.28;5047724;28;20064;-61
2024/01/11 06:21:16;;;;;;;7.43;5.45;;;;;;;18.25;41.43;102092.41;5041101;28;20057;-61
2024/01/11 06:23:44;;;;;;;5.70;5.10;;;;;;;18.24;41.51;102090.69;5047147;28;20051;-60
2024/01/11 06:26:12;;;;;;;6.88;4.82;;;;;;;18.24;41.42;102085.34;5033785;28;20041;-61
2024/01/11 06:28:39;;;;;;;6.22;5.00;;;;;;;18.23;41.42;102092.53;5022352;28;20063;-61
2024/01/11 06:31:10;;;;;;;5.97;4.82;;;;;;;18.22;41.44;102093.44;5050328;28;20059;-61
2024/01/11 06:33:37;;;;;;;5.97;4.65;;;;;;;18.22;41.24;102084.56;5036590;28;20486;-59
2024/01/11 06:36:07;;;;;;;7.32;5.03;;;;;;;18.23;41.41;102086.25;5045827;28;20148;-60
2024/01/11 06:38:34;;;;;;;7.00;5.45;;;;;;;18.22;41.21;102090.78;5041834;28;20048;-61
2024/01/11 06:41:02;;;;;;;7.18;5.38;;;;;;;18.22;41.38;102084.56;5048358;28;20045;-61
2024/01/11 06:43:30;;;;;;;5.82;5.15;;;;;;;18.21;41.33;102085.50;5048519;28;20072;-61
2024/01/11 06:46:02;;;;;;;7.53;6.03;;;;;;;18.21;41.17;102089.06;5043648;28;20044;-61
2024/01/11 06:48:31;;;;;;;6.55;5.25;;;;;;;18.22;41.09;102087.22;5048257;28;20479;-61
2024/01/11 06:50:58;;;;;;;6.82;5.35;;;;;;;18.20;41.14;102079.28;5030086;28;20132;-61
2024/01/11 06:53:28;;;;;;;6.68;5.03;;;;;;;18.20;41.19;102079.28;5045317;28;20052;-61
2024/01/11 06:55:56;;;;;;;7.07;5.50;;;;;;;18.19;41.17;102077.56;5034530;28;20049;-61
2024/01/11 06:58:23;;;;;;;7.05;5.72;;;;;;;18.19;41.17;102085.63;5048298;28;20491;-61
2024/01/11 07:00:50;;;;;;;7.07;5.68;;;;;;;18.18;41.13;102074.97;5049473;28;20072;-62
2024/01/11 07:03:18;;;;;;;6.95;5.28;;;;;;;18.17;41.21;102074.13;5047663;28;20426;-61
2024/01/11 07:05:45;;;;;;;6.47;4.90;;;;;;;18.18;41.16;102074.97;5044529;28;20056;-61
2024/01/11 07:08:13;;;;;;;5.60;4.75;;;;;;;18.16;41.38;102075.06;5043747;28;20093;-61
2024/01/11 07:10:42;;;;;;;6.13;5.13;;;;;;;18.17;41.29;102084.84;5024383;28;20053;-61
2024/01/11 07:13:11;;;;;;;6.60;5.10;;;;;;;18.18;41.24;102083.88;5043893;28;20045;-60
2024/01/11 07:15:38;;;;;;;5.88;4.55;;;;;;;18.18;41.37;102080.34;5035614;28;20076;-61
2024/01/11 07:18:05;;;;;;;6.63;5.25;;;;;;;18.17;41.26;102076.78;5047984;28;20044;-61
2024/01/11 07:20:33;;;;;;;5.93;4.95;;;;;;;18.18;41.29;102072.28;5048101;28;20441;-61
2024/01/11 07:23:01;;;;;;;6.20;5.03;;;;;;;18.16;41.35;102071.53;5035288;28;20388;-61
2024/01/11 07:25:28;;;;;;;5.38;4.45;;;;;;;18.17;41.22;102073.25;5045121;28;20060;-60
2024/01/11 07:27:55;;;;;;;5.97;5.00;;;;;;;18.18;41.46;102069.63;5027816;28;20049;-60
2024/01/11 07:30:23;;;;;;;6.88;5.63;;;;;;;18.18;41.44;102067.78;5033223;28;20060;-60
2024/01/11 07:32:51;;;;;;;6.90;5.20;;;;;;;18.18;41.36;102067.78;5046898;28;20387;-60
2024/01/11 07:35:20;;;;;;;6.13;4.90;;;;;;;18.17;41.41;102066.06;5044570;28;20050;-59
2024/01/11 07:37:47;;;;;;;7.18;5.03;;;;;;;18.15;41.40;102068.00;5048230;28;20379;-59
2024/01/11 07:40:14;;;;;;;7.10;5.18;;;;;;;18.15;41.33;102070.69;5048111;28;20049;-59
2024/01/11 07:42:43;;;;;;;6.60;4.93;;;;;;;18.15;41.34;102064.44;5048639;28;20072;-59
2024/01/11 07:45:10;;;;;;;6.82;5.07;;;;;;;18.15;41.28;102065.31;5048799;28;20504;-59
2024/01/11 07:47:39;;;;;;;6.30;5.07;;;;;;;18.14;41.37;102066.25;5051966;28;20391;-60
2024/01/11 07:50:09;;;;;;;7.03;5.05;;;;;;;18.14;41.29;102063.56;5052194;28;20060;-59
2024/01/11 07:52:37;;;;;;;7.93;5.40;;;;;;;18.13;41.41;102066.38;5049610;28;20060;-59
2024/01/11 07:55:08;;;;;;;6.70;4.90;;;;;;;18.13;41.44;102074.41;5050226;28;20055;-60
2024/01/11 07:57:36;;;;;;;7.43;5.32;;;;;;;18.14;41.43;102076.13;5052212;28;20495;-59
2024/01/11 08:00:06;;;;;;;6.05;4.43;;;;;;;18.12;41.38;102072.69;5051815;28;20387;-59
2024/01/11 08:02:39;;;;;;;7.65;5.53;;;;;;;18.12;41.41;102083.41;5045259;28;20046;-59
2024/01/11 08:05:07;;;;;;;8.65;5.32;;;;;;;18.09;41.38;102080.91;5052012;28;20487;-60
2024/01/11 08:07:35;;;;;;;6.93;5.20;;;;;;;18.09;41.47;102087.13;5053338;28;20089;-60
2024/01/11 08:10:04;;;;;;;8.00;4.93;;;;;;;18.11;41.53;102095.94;5051352;28;20045;-60
2024/01/11 08:12:31;;;;;;;6.53;5.43;;;;;;;18.12;41.70;102089.63;5045653;28;20046;-60
2024/01/11 08:14:59;;;;;;;7.75;5.47;;;;;;;18.12;41.71;102096.81;5051542;28;20072;-60
2024/01/11 08:17:26;;;;;;;10.10;7.47;;;;;;;18.11;40.48;102095.06;5046597;28;20049;-59
2024/01/11 08:19:55;;;;;;;13.15;10.07;;;;;;;18.06;39.11;102089.97;5050022;28;20487;-60
2024/01/11 08:22:23;;;;;;;10.25;9.07;;;;;;;18.02;37.97;102091.97;5045219;28;20061;-60
2024/01/11 08:24:54;;;;;;;12.30;10.68;;;;;;;17.99;37.12;102094.00;5051162;28;20051;-60
2024/01/11 08:27:21;;;;;;;13.57;10.70;;;;;;;17.93;36.54;102089.88;5051193;28;20049;-59
2024/01/11 08:29:49;;;;;;;11.70;10.07;;;;;;;17.90;36.10;102091.84;5050670;28;20057;-59
2024/01/11 08:32:16;;;;;;;14.02;10.65;;;;;;;17.86;35.83;102091.19;5047105;28;20049;-58
2024/01/11 08:34:57;;;;;;;13.25;10.90;;;;;;;17.83;35.47;102087.84;5051163;28;20071;-59
2024/01/11 08:37:25;;;;;;;11.52;10.35;;;;;;;17.77;35.62;102087.22;5050930;28;20044;-60
2024/01/11 08:39:52;;;;;;;12.07;9.20;;;;;;;17.77;35.70;102083.69;5047957;28;20392;-60
2024/01/11 08:42:20;;;;;;;12.90;9.52;;;;;;;17.77;35.56;102083.69;5028196;28;20045;-60
2024/01/11 08:44:47;;;;;;;11.52;9.15;;;;;;;17.77;35.58;102081.88;5049543;28;20052;-60
2024/01/11 08:47:15;;;;;;;10.32;9.27;;;;;;;17.78;35.50;102082.72;5051013;28;20045;-60
2024/01/11 08:49:43;;;;;;;12.15;9.68;;;;;;;17.79;35.39;102084.47;5047015;28;20055;-60
2024/01/11 08:52:10;;;;;;;12.05;9.35;;;;;;;17.78;35.40;102083.63;5049759;28;20049;-60
2024/01/11 08:54:37;;;;;;;11.75;9.73;;;;;;;17.79;35.46;102073.78;5047313;28;20458;-60
2024/01/11 08:57:05;;;;;;;11.48;9.50;;;;;;;17.81;35.49;102071.00;5039590;28;20049;-59
2024/01/11 08:59:32;;;;;;;10.57;9.48;;;;;;;17.83;35.73;102074.44;5048657;28;20048;-60
2024/01/11 09:02:00;;;;;;;10.57;8.75;;;;;;;17.84;35.53;102081.53;5049493;28;20398;-60
2024/01/11 09:04:41;;;;;;;10.10;8.80;;;;;;;17.85;35.67;102081.41;5050605;28;20049;-60
2024/01/11 09:07:08;;;;;;;11.05;9.40;;;;;;;17.85;35.53;102073.38;5049829;28;20064;-58
2024/01/11 09:09:36;;;;;;;9.93;8.55;;;;;;;17.85;35.56;102077.88;5046314;28;20372;-59
2024/01/11 09:12:16;;;;;;;11.07;9.23;;;;;;;17.86;35.43;102076.91;5050331;28;20467;-59
2024/01/11 09:14:44;;;;;;;11.43;9.13;;;;;;;17.85;35.40;102080.56;5050055;28;20041;-59
2024/01/11 09:17:11;;;;;;;11.13;8.75;;;;;;;17.84;35.34;102077.03;5047619;28;20060;-60
2024/01/11 09:19:39;;;;;;;12.15;9.10;;;;;;;17.84;35.19;102081.53;5048204;28;20045;-60
2024/01/11 09:22:10;;;;;;;11.93;9.50;;;;;;;17.84;34.99;102082.38;5049704;28;20151;-60
2024/01/11 09:24:38;;;;;;;10.13;8.93;;;;;;;17.82;35.00;102078.06;5048877;28;20504;-60
2024/01/11 09:27:06;;;;;;;11.50;9.35;;;;;;;17.83;34.86;102080.66;5046244;28;20057;-60
2024/01/11 09:29:34;;;;;;;11.13;8.35;;;;;;;17.84;34.93;102084.22;5048873;28;20052;-60
2024/01/11 09:32:01;;;;;;;9.45;8.32;;;;;;;17.85;35.03;102081.41;5047893;28;20057;-60
2024/01/11 09:34:29;;;;;;;10.38;7.88;;;;;;;17.87;35.55;102082.22;5047306;28;20052;-59
2024/01/11 09:36:58;;;;;;;9.68;7.55;;;;;;;17.89;36.06;102085.63;5046549;28;20066;-59
2024/01/11 09:39:26;;;;;;;8.48;6.68;;;;;;;17.92;36.17;102081.94;5049774;28;20056;-58
2024/01/11 09:42:11;;;;;;;8.68;6.30;;;;;;;17.93;36.50;102075.59;5041783;28;20053;-60
2024/01/11 09:44:41;;;;;;;7.93;6.28;;;;;;;17.94;36.60;102070.16;5048366;28;20040;-60
2024/01/11 09:47:10;;;;;;;7.80;6.28;;;;;;;17.96;36.67;102072.75;5047007;28;20053;-58
2024/01/11 09:49:45;;;;;;;7.68;6.57;;;;;;;17.98;36.79;102073.50;5049639;28;20056;-58
2024/01/11 09:52:14;;;;;;;8.00;5.90;;;;;;;17.99;36.59;102075.25;5049439;28;20056;-58
2024/01/11 09:54:42;;;;;;;6.85;6.07;;;;;;;17.99;36.97;102075.25;5045092;28;20060;-59
2024/01/11 09:57:10;;;;;;;9.13;5.93;;;;;;;17.99;36.98;102076.09;5026907;28;20044;-59
2024/01/11 09:59:37;;;;;;;6.63;5.53;;;;;;;18.00;37.07;102071.63;5049356;28;20395;-59
2024/01/11 10:02:09;;;;;;;7.88;5.78;;;;;;;18.00;37.14;102060.88;5049140;28;20045;-59
2024/01/11 10:04:37;;;;;;;7.03;5.28;;;;;;;18.01;37.28;102062.59;5042983;28;20050;-59
2024/01/11 10:07:06;;;;;;;6.90;5.72;;;;;;;18.02;37.23;102058.97;5048023;28;20049;-59
2024/01/11 10:09:33;;;;;;;7.10;5.03;;;;;;;18.02;37.28;102042.88;5048985;28;20472;-59
2024/01/11 10:12:01;;;;;;;7.95;5.97;;;;;;;18.02;37.35;102034.84;5047494;28;20049;-59
2024/01/11 10:14:28;;;;;;;6.57;5.35;;;;;;;18.03;37.41;102031.25;5036281;28;20049;-59
2024/01/11 10:16:56;;;;;;;8.18;5.50;;;;;;;18.03;37.47;102033.91;5048743;28;20052;-60
2024/01/11 10:19:23;;;;;;;6.95;5.03;;;;;;;18.06;37.51;102022.13;5048869;28;20403;-60
2024/01/11 10:21:51;;;;;;;7.13;4.95;;;;;;;18.06;37.74;102014.09;5048887;28;20045;-60
2024/01/11 10:24:20;;;;;;;8.10;5.35;;;;;;;18.06;37.72;102016.78;5044345;28;20412;-60
2024/01/11 10:26:48;;;;;;;6.78;5.43;;;;;;;18.05;37.73;102013.22;5048859;28;20049;-60
2024/01/11 10:29:15;;;;;;;8.25;5.65;;;;;;;18.07;38.20;102002.41;5048221;28;20045;-60
2024/01/11 10:31:42;;;;;;;8.07;5.45;;;;;;;18.08;38.33;101999.66;5046715;28;20041;-60
2024/01/11 10:34:10;;;;;;;6.65;5.40;;;;;;;18.08;38.36;101994.28;5044242;28;20050;-60
2024/01/11 10:36:37;;;;;;;5.82;4.90;;;;;;;18.09;38.46;101995.16;5039626;28;20052;-59
2024/01/11 10:39:05;;;;;;;5.65;4.85;;;;;;;18.09;38.53;101996.00;5046815;28;20044;-59
2024/01/11 10:41:43;;;;;;;5.90;4.63;;;;;;;18.09;38.73;101990.66;5048202;28;20414;-59
2024/01/11 10:44:24;;;;;;;6.97;5.43;;;;;;;18.09;38.66;101979.06;5045922;28;20050;-59
2024/01/11 10:46:56;;;;;;;7.28;5.72;;;;;;;18.10;38.77;101972.75;5048618;28;20052;-59
2024/01/11 10:49:25;;;;;;;6.57;4.70;;;;;;;18.09;38.64;101979.06;5036158;28;20049;-60
2024/01/11 10:52:06;;;;;;;6.97;4.63;;;;;;;18.10;38.80;101972.75;5045762;28;20100;-60
2024/01/11 10:54:36;;;;;;;7.13;5.18;;;;;;;18.10;38.69;101972.75;5048214;28;20483;-60
2024/01/11 10:57:07;;;;;;;7.15;5.03;;;;;;;18.10;38.75;101970.06;5048382;28;20045;-59
2024/01/11 10:59:37;;;;;;;6.90;5.38;;;;;;;18.10;38.89;101967.38;5043857;28;20057;-59
2024/01/11 11:02:07;;;;;;;6.38;4.75;;;;;;;18.09;38.89;101963.84;5026445;28;20052;-59
2024/01/11 11:04:37;;;;;;;6.97;4.53;;;;;;;18.10;38.85;101965.56;5047983;28;20060;-58
2024/01/11 11:07:08;;;;;;;6.25;4.78;;;;;;;18.09;38.97;101963.84;5047620;28;20439;-59
2024/01/11 11:09:40;;;;;;;6.15;4.28;;;;;;;18.10;38.99;101956.66;5044162;28;20357;-60
2024/01/11 11:12:08;;;;;;;6.40;4.50;;;;;;;18.10;38.84;101960.19;5034054;28;20049;-60
2024/01/11 11:14:38;;;;;;;6.57;4.80;;;;;;;18.09;38.89;101950.44;5041964;28;20048;-60
2024/01/11 11:17:05;;;;;;;5.18;4.07;;;;;;;18.09;39.00;101952.28;5046301;28;20041;-59
2024/01/11 11:19:33;;;;;;;6.00;4.22;;;;;;;18.09;39.03;101947.78;5044910;28;20415;-59
2024/01/11 11:22:04;;;;;;;6.57;4.65;;;;;;;18.10;39.02;101940.59;5047548;28;20410;-59
2024/01/11 11:24:35;;;;;;;5.47;4.78;;;;;;;18.09;38.99;101937.06;5048007;28;20049;-59
2024/01/11 11:27:03;;;;;;;5.88;4.57;;;;;;;18.08;38.88;101927.28;5045358;28;20056;-59
2024/01/11 11:29:30;;;;;;;7.10;4.72;;;;;;;18.09;39.03;101931.69;5046972;28;20080;-60